Terminal Aerodrome Forecast
Issued by NWS

Home | Current Version | Previous Version | Text Only | Print | Product List | Glossary On
Versions: 1 2 3 4 5 6 7 8 9 10 11 12 13 14 15 16 17 18 19 20 21 22 23 24
000
FTUS46 KPDT 211957 AAA
TAFDLS
TAF AMD
KDLS 211957Z 2120/2218 08007KT P6SM VCSH OVC070
     FM212300 VRB04KT P6SM -RA OVC040
     FM220200 30005KT P6SM SCT040 OVC100
     FM221000 VRB03KT P6SM SCT100 BKN200=

USA.gov is the U.S. government's official web portal to all federal, state and local government web resources and services.